Time;durP1;ratioP1;P1;durP2;ratioP2;P2;SDS_P1;SDS_P2;PMS_P1;PMS_P2;Temp;Humidity;BMP_temperature;BMP_pressure;BME280_temperature;BME280_humidity;BME280_pressure;Samples;Min_cycle;Max_cycle;Signal;HPM_P1;HPM_P2
2022/05/14 00:00:00;;;;;;;;;4.00;4.00;;;;;30.59;100.00;101196.34;6319608;22;51265;-49
2022/05/14 00:02:45;;;;;;;;;4.00;2.50;;;;;30.62;100.00;101194.34;6336541;22;51168;-48
2022/05/14 00:05:30;;;;;;;;;5.25;2.00;;;;;30.64;100.00;101195.06;6342827;22;51081;-48
2022/05/14 00:08:15;;;;;;;;;5.00;3.75;;;;;30.64;100.00;101195.06;6342713;22;51123;-45
2022/05/14 00:14:06;;;;;;;;;7.50;4.50;;;;;30.65;100.00;101196.81;6343495;22;51307;-48
2022/05/14 00:16:51;;;;;;;;;5.00;3.50;;;;;30.61;100.00;101196.22;6343106;22;51125;-47
2022/05/14 00:19:35;;;;;;;;;8.00;5.00;;;;;30.59;100.00;101199.09;6342733;22;51453;-47
2022/05/14 00:22:19;;;;;;;;;7.25;4.00;;;;;30.57;100.00;101194.72;6341996;22;51057;-44
2022/05/14 00:25:04;;;;;;;;;5.00;3.00;;;;;30.54;100.00;101200.47;6343298;22;51023;-45
2022/05/14 00:27:49;;;;;;;;;3.25;3.25;;;;;30.51;100.00;101195.19;6343310;22;51108;-47
2022/05/14 00:30:34;;;;;;;;;4.50;4.00;;;;;30.43;100.00;101188.44;6335440;22;51445;-48
2022/05/14 00:33:19;;;;;;;;;6.75;4.00;;;;;30.43;100.00;101204.94;6342834;22;51420;-48
2022/05/14 00:36:04;;;;;;;;;7.00;3.75;;;;;30.45;100.00;101193.81;6343455;22;51310;-48
2022/05/14 00:38:48;;;;;;;;;6.75;4.50;;;;;30.47;100.00;101197.31;6345272;22;51079;-46
2022/05/14 00:41:35;;;;;;;;;4.75;3.75;;;;;30.47;100.00;101194.56;6344733;22;51095;-47
2022/05/14 00:44:19;;;;;;;;;9.00;4.75;;;;;30.44;100.00;101192.06;6345156;22;51343;-50
2022/05/14 00:47:10;;;;;;;;;4.75;4.75;;;;;30.44;100.00;101214.03;6339097;22;51033;-48
2022/05/14 00:49:55;;;;;;;;;5.25;3.75;;;;;30.43;100.00;101212.28;6321339;22;50996;-47
2022/05/14 00:52:39;;;;;;;;;3.00;2.75;;;;;30.43;100.00;101223.25;6321154;22;51212;-47
2022/05/14 00:55:24;;;;;;;;;1.75;0.00;;;;;30.41;100.00;101215.16;6345414;22;51456;-51
2022/05/14 00:58:13;;;;;;;;;5.00;4.00;;;;;30.42;100.00;101227.88;6344421;22;51102;-47
2022/05/14 01:00:57;;;;;;;;;7.00;4.00;;;;;30.42;100.00;101230.63;6340548;22;51169;-47
2022/05/14 01:03:42;;;;;;;;;5.00;3.00;;;;;30.45;100.00;101235.88;6342456;22;51040;-45
2022/05/14 01:06:31;;;;;;;;;7.00;4.75;;;;;30.45;100.00;101233.13;6343214;22;51142;-45
2022/05/14 01:09:15;;;;;;;;;2.25;2.25;;;;;30.47;100.00;101234.88;6322574;22;51403;-47
2022/05/14 01:12:00;;;;;;;;;6.00;5.00;;;;;30.32;100.00;101195.81;6343435;22;51033;-48
2022/05/14 01:14:45;;;;;;;;;5.00;3.00;;;;;30.50;100.00;101219.03;6344484;22;51040;-44
2022/05/14 01:17:29;;;;;;;;;4.75;2.75;;;;;30.52;100.00;101224.38;6344559;22;51030;-47
2022/05/14 01:20:15;;;;;;;;;5.25;4.00;;;;;30.54;100.00;101223.28;6344205;22;51132;-47
2022/05/14 01:23:11;;;;;;;;;3.75;3.25;;;;;30.55;100.00;101215.94;6344158;22;51288;-47
2022/05/14 01:26:30;;;;;;;;;6.00;3.00;;;;;30.57;100.00;101211.22;6320920;22;51061;-47
2022/05/14 01:29:21;;;;;;;;;5.00;3.75;;;;;30.62;100.00;101208.94;6325189;22;51033;-48
2022/05/14 01:32:06;;;;;;;;;4.00;4.00;;;;;30.62;100.00;101183.38;6344350;22;51362;-47
2022/05/14 01:34:50;;;;;;;;;3.50;2.00;;;;;30.60;100.00;101169.75;6344101;22;51296;-46
2022/05/14 01:37:37;;;;;;;;;5.75;3.00;;;;;30.55;100.00;101163.78;6344686;22;50990;-45
2022/05/14 01:40:21;;;;;;;;;4.00;3.75;;;;;30.55;100.00;101163.78;6345298;22;51137;-45
2022/05/14 01:43:06;;;;;;;;;3.00;3.00;;;;;30.45;100.00;101142.53;6345022;22;51021;-45
2022/05/14 01:45:50;;;;;;;;;6.00;5.00;;;;;30.49;100.00;101129.41;6343565;22;51102;-44
2022/05/14 01:48:34;;;;;;;;;8.25;3.75;;;;;30.50;100.00;101114.69;6343329;22;51507;-45
2022/05/14 01:51:19;;;;;;;;;7.25;3.75;;;;;30.50;100.00;101109.19;6343125;22;51036;-45
2022/05/14 01:54:04;;;;;;;;;4.00;4.00;;;;;30.45;100.00;101106.84;6345968;22;51076;-45
2022/05/14 01:56:49;;;;;;;;;3.00;3.00;;;;;30.52;100.00;101111.81;6344776;22;51519;-47
2022/05/14 01:59:34;;;;;;;;;5.75;2.00;;;;;30.51;100.00;101099.97;6343601;22;51316;-50
2022/05/14 02:02:18;;;;;;;;;4.25;2.25;;;;;30.56;100.00;101092.25;6338545;22;51017;-46
2022/05/14 02:05:02;;;;;;;;;6.75;3.75;;;;;30.57;100.00;101084.91;6345440;22;51019;-48
2022/05/14 02:07:47;;;;;;;;;5.25;3.25;;;;;30.58;100.00;101073.78;6344524;22;51099;-48
2022/05/14 02:10:31;;;;;;;;;5.75;4.25;;;;;30.54;100.00;101065.91;6344010;22;50985;-48
2022/05/14 02:13:15;;;;;;;;;3.00;3.00;;;;;30.49;100.00;101051.66;6345378;22;51134;-44
2022/05/14 02:16:00;;;;;;;;;4.25;3.00;;;;;30.44;100.00;101047.44;6344508;22;51116;-46
2022/05/14 02:18:44;;;;;;;;;5.25;2.75;;;;;30.32;100.00;101028.38;6344573;22;51152;-46
2022/05/14 02:21:29;;;;;;;;;3.25;2.75;;;;;30.40;100.00;101050.56;6344448;22;51289;-48
2022/05/14 02:24:13;;;;;;;;;5.00;4.50;;;;;30.38;100.00;101064.41;6345411;22;51336;-45
2022/05/14 02:26:58;;;;;;;;;3.25;3.25;;;;;30.33;100.00;101049.31;6344018;22;51068;-49
2022/05/14 02:29:53;;;;;;;;;2.50;1.50;;;;;30.32;100.00;101056.69;6344534;22;51050;-46
2022/05/14 02:32:38;;;;;;;;;7.00;4.75;;;;;30.31;100.00;101043.97;6344552;22;50997;-48
2022/05/14 02:35:22;;;;;;;;;5.75;5.00;;;;;30.33;100.00;101052.06;6344816;22;50985;-46
2022/05/14 02:38:07;;;;;;;;;6.75;3.00;;;;;30.34;100.00;101057.44;6344090;22;51048;-50
2022/05/14 02:40:53;;;;;;;;;4.00;3.50;;;;;30.28;100.00;101060.66;6343387;22;51048;-46
2022/05/14 02:43:37;;;;;;;;;5.75;3.25;;;;;30.30;100.00;101073.28;6344391;22;51152;-45
2022/05/14 02:46:21;;;;;;;;;2.75;2.50;;;;;30.27;100.00;101092.75;6344861;22;51366;-47
2022/05/14 02:49:06;;;;;;;;;4.00;2.25;;;;;30.27;100.00;101095.50;6344053;22;51086;-47
2022/05/14 02:51:50;;;;;;;;;5.50;2.50;;;;;30.27;100.00;101108.31;6343904;22;51131;-45
2022/05/14 02:54:35;;;;;;;;;4.50;4.00;;;;;30.33;100.00;101102.34;6345379;22;50963;-49
2022/05/14 02:57:20;;;;;;;;;0.00;0.00;;;;;30.34;100.00;101101.34;6319962;22;50991;-46
2022/05/14 03:00:07;;;;;;;;;2.25;2.00;;;;;30.36;100.00;101096.63;6343737;22;50983;-48
2022/05/14 03:02:52;;;;;;;;;4.25;3.00;;;;;30.37;100.00;101122.19;6334781;22;51416;-47
2022/05/14 03:05:36;;;;;;;;;5.50;3.75;;;;;30.28;100.00;101119.19;6343506;22;51165;-47
2022/05/14 03:08:21;;;;;;;;;9.75;6.25;;;;;30.24;100.00;101120.44;6344167;22;51353;-45
2022/05/14 03:11:05;;;;;;;;;8.75;4.25;;;;;30.18;100.00;101118.22;6342861;22;51374;-47
2022/05/14 03:13:50;;;;;;;;;4.00;4.00;;;;;30.11;100.00;101117.81;6344166;22;51287;-48
2022/05/14 03:16:34;;;;;;;;;6.00;4.75;;;;;30.13;100.00;101106.72;6344499;22;51062;-49
2022/05/14 03:19:19;;;;;;;;;7.25;4.00;;;;;30.09;100.00;101103.34;6343807;22;51028;-47
2022/05/14 03:22:04;;;;;;;;;9.00;6.00;;;;;30.10;100.00;101127.06;6343153;22;51052;-48
2022/05/14 03:24:48;;;;;;;;;7.75;3.75;;;;;30.11;100.00;101137.03;6343786;22;51052;-46
2022/05/14 03:27:33;;;;;;;;;9.00;6.75;;;;;30.11;100.00;101144.38;6344192;22;50990;-47
2022/05/14 03:30:18;;;;;;;;;6.50;5.00;;;;;30.07;100.00;101135.53;6343346;22;51159;-44
2022/05/14 03:33:02;;;;;;;;;8.75;5.00;;;;;30.03;100.00;101149.59;6343231;22;51080;-46
2022/05/14 03:35:46;;;;;;;;;2.00;2.00;;;;;30.03;100.00;101158.72;6343414;22;51026;-45
2022/05/14 03:38:31;;;;;;;;;9.25;6.00;;;;;30.07;100.00;101184.06;6344801;22;51064;-48
2022/05/14 03:41:16;;;;;;;;;4.00;3.75;;;;;30.09;100.00;101187.56;6342492;22;51068;-46
2022/05/14 03:44:02;;;;;;;;;5.75;3.75;;;;;30.05;100.00;101199.75;6343986;22;51036;-48
2022/05/14 03:46:46;;;;;;;;;5.50;4.00;;;;;29.93;100.00;101205.22;6342906;22;51293;-48
2022/05/14 03:49:31;;;;;;;;;3.75;2.00;;;;;29.74;100.00;101216.69;6344217;22;51030;-48
2022/05/14 03:52:17;;;;;;;;;5.00;3.50;;;;;29.49;100.00;101225.94;6343958;22;51474;-47
2022/05/14 03:55:01;;;;;;;;;5.00;3.75;;;;;29.14;100.00;101207.56;6344095;22;51126;-46
2022/05/14 03:57:45;;;;;;;;;4.00;3.75;;;;;28.97;100.00;101189.66;6343674;22;51116;-46
2022/05/14 04:00:30;;;;;;;;;7.25;5.75;;;;;28.95;100.00;101183.41;6337509;22;50985;-46
2022/05/14 04:03:15;;;;;;;;;9.00;4.00;;;;;28.97;100.00;101175.94;6318966;22;51410;-46
2022/05/14 04:06:00;;;;;;;;;7.00;6.50;;;;;28.99;100.00;101179.44;6343486;22;51055;-47
2022/05/14 04:08:45;;;;;;;;;13.75;8.00;;;;;28.94;100.00;101159.72;6344237;22;51042;-47
2022/05/14 04:11:29;;;;;;;;;3.50;1.25;;;;;28.94;100.00;101170.69;6342663;22;51404;-47
2022/05/14 04:14:13;;;;;;;;;4.50;1.25;;;;;28.89;100.00;101152.72;6342702;22;50977;-48
2022/05/14 04:17:01;;;;;;;;;4.75;3.50;;;;;28.88;100.00;101164.69;6342529;22;51348;-48
2022/05/14 04:19:45;;;;;;;;;9.25;3.50;;;;;28.85;100.00;101155.81;6343897;22;51328;-45
2022/05/14 04:22:30;;;;;;;;;8.25;4.25;;;;;28.21;100.00;100869.50;6343733;22;51100;-48
2022/05/14 04:25:15;;;;;;;;;6.25;5.50;;;;;27.59;100.00;100847.63;6319005;22;51050;-45
2022/05/14 04:27:59;;;;;;;;;11.00;7.00;;;;;27.32;100.00;100798.59;6342814;22;52009;-45
2022/05/14 04:30:45;;;;;;;;;16.50;7.50;;;;;27.15;100.00;100803.41;6341556;22;51111;-47
2022/05/14 04:33:29;;;;;;;;;15.75;6.25;;;;;27.01;100.00;100736.16;6344011;22;51020;-45
2022/05/14 04:36:14;;;;;;;;;9.50;4.25;;;;;26.99;100.00;100735.38;6343127;22;51341;-46
2022/05/14 04:38:59;;;;;;;;;6.50;5.25;;;;;27.03;100.00;100738.78;6340870;22;51127;-48
2022/05/14 04:41:43;;;;;;;;;12.00;6.50;;;;;27.02;100.00;100737.91;6342999;22;51350;-47
2022/05/14 04:44:29;;;;;;;;;15.50;5.00;;;;;27.15;100.00;100731.53;6342159;22;51242;-49
2022/05/14 04:47:16;;;;;;;;;9.50;5.50;;;;;27.31;100.00;100731.28;6343553;22;51034;-47
2022/05/14 04:50:01;;;;;;;;;7.75;6.50;;;;;27.43;100.00;100741.28;6343440;22;51082;-49
2022/05/14 04:52:45;;;;;;;;;11.00;5.75;;;;;27.62;100.00;100790.00;6343504;22;51416;-45
2022/05/14 04:55:29;;;;;;;;;8.75;4.50;;;;;27.79;100.00;100807.00;6341115;22;51024;-44
2022/05/14 04:58:14;;;;;;;;;10.25;9.00;;;;;27.98;100.00;100836.56;6342659;22;51035;-48
2022/05/14 05:00:58;;;;;;;;;10.50;7.25;;;;;28.10;100.00;100867.59;6342847;22;50981;-45
2022/05/14 05:03:43;;;;;;;;;7.50;5.50;;;;;28.27;100.00;100883.59;6341764;22;51051;-45
2022/05/14 05:06:27;;;;;;;;;13.75;7.00;;;;;28.38;100.00;100893.72;6343767;22;51412;-47
2022/05/14 05:09:12;;;;;;;;;6.75;6.50;;;;;28.55;100.00;100897.91;6341629;22;51078;-46
2022/05/14 05:11:57;;;;;;;;;9.25;6.50;;;;;28.61;100.00;100902.91;6344366;22;50934;-47
2022/05/14 05:14:41;;;;;;;;;12.00;10.00;;;;;28.78;100.00;100906.22;6343052;22;51049;-46
2022/05/14 05:17:26;;;;;;;;;10.25;9.00;;;;;28.83;100.00;100897.66;6342256;22;51064;-47
2022/05/14 05:20:11;;;;;;;;;13.50;8.00;;;;;28.95;100.00;100914.97;6341994;22;51135;-46
2022/05/14 05:22:55;;;;;;;;;8.25;6.50;;;;;29.04;100.00;100923.34;6343352;22;50997;-45
2022/05/14 05:25:40;;;;;;;;;9.00;8.00;;;;;29.07;100.00;100908.53;6343762;22;51053;-45
2022/05/14 05:28:26;;;;;;;;;6.00;5.00;;;;;29.18;100.00;100924.09;6344347;22;51152;-47
2022/05/14 05:31:10;;;;;;;;;13.25;6.50;;;;;29.25;100.00;100916.25;6343796;22;51333;-47
2022/05/14 05:33:55;;;;;;;;;8.00;5.25;;;;;29.26;100.00;100920.75;6343295;22;51044;-48
2022/05/14 05:36:39;;;;;;;;;12.50;8.50;;;;;29.29;100.00;100932.34;6344531;22;51065;-46
2022/05/14 05:39:23;;;;;;;;;11.50;5.00;;;;;29.27;100.00;100922.50;6344711;22;51045;-47
2022/05/14 05:42:08;;;;;;;;;7.00;4.75;;;;;29.33;100.00;100928.41;6343833;22;51499;-48
2022/05/14 05:44:52;;;;;;;;;15.50;9.75;;;;;29.37;100.00;100918.06;6342990;22;51041;-47
2022/05/14 05:47:37;;;;;;;;;14.75;10.00;;;;;29.45;100.00;100910.06;6345026;22;51038;-48
2022/05/14 05:50:21;;;;;;;;;13.75;11.50;;;;;29.49;100.00;100917.06;6343419;22;51082;-47
2022/05/14 05:53:06;;;;;;;;;11.00;9.50;;;;;29.53;100.00;100929.50;6344161;22;51093;-49
2022/05/14 05:58:54;;;;;;;;;11.25;7.75;;;;;29.65;100.00;100935.00;6344513;22;51185;-44
2022/05/14 06:01:38;;;;;;;;;11.75;9.00;;;;;29.66;100.00;100934.00;6321265;22;51479;-48
2022/05/14 06:04:23;;;;;;;;;8.50;6.50;;;;;29.73;100.00;100942.59;6345363;22;50981;-45
2022/05/14 06:07:08;;;;;;;;;11.75;6.50;;;;;29.77;100.00;100942.22;6343465;22;51417;-46
2022/05/14 06:09:52;;;;;;;;;8.25;5.75;;;;;29.80;100.00;100932.84;6343866;22;51052;-45
2022/05/14 06:12:38;;;;;;;;;7.25;4.50;;;;;29.83;100.00;100939.00;6345994;22;50944;-45
2022/05/14 06:15:22;;;;;;;;;6.00;5.25;;;;;29.89;100.00;100936.72;6344320;22;51175;-46
2022/05/14 06:18:08;;;;;;;;;7.75;6.25;;;;;29.94;100.00;100934.53;6345087;22;51088;-48
2022/05/14 06:20:53;;;;;;;;;8.00;5.25;;;;;29.95;100.00;100930.75;6344532;22;51180;-47
2022/05/14 06:23:38;;;;;;;;;9.00;6.25;;;;;30.01;100.00;100930.25;6343892;22;51004;-44
2022/05/14 06:26:22;;;;;;;;;15.00;5.00;;;;;30.04;100.00;100924.53;6344245;22;51132;-48
2022/05/14 06:29:07;;;;;;;;;8.75;7.00;;;;;30.11;100.00;100936.72;6343294;22;51048;-51
2022/05/14 06:31:52;;;;;;;;;8.00;5.00;;;;;30.19;100.00;100938.81;6343699;22;51060;-51
2022/05/14 06:34:36;;;;;;;;;9.25;6.00;;;;;30.32;100.00;100951.53;6342926;22;51068;-51
2022/05/14 06:37:21;;;;;;;;;5.25;5.00;;;;;30.41;100.00;100959.84;6343612;22;51054;-52
2022/05/14 06:40:06;;;;;;;;;10.00;5.25;;;;;30.50;100.00;100957.31;6343405;22;51488;-50
2022/05/14 06:42:50;;;;;;;;;7.00;5.75;;;;;30.53;100.00;100957.09;6343179;22;51047;-50
2022/05/14 06:45:35;;;;;;;;;6.00;6.00;;;;;30.66;100.00;100971.53;6343591;22;51036;-47
2022/05/14 06:48:21;;;;;;;;;4.75;3.75;;;;;30.70;100.00;100972.97;6343565;22;51213;-50
2022/05/14 06:51:10;;;;;;;;;9.75;6.75;;;;;30.83;100.00;100980.19;6337722;22;51038;-48
2022/05/14 06:53:58;;;;;;;;;8.00;8.00;;;;;30.92;100.00;100995.88;6318074;22;51117;-47
2022/05/14 06:56:44;;;;;;;;;11.75;9.25;;;;;30.98;100.00;100998.09;6343045;22;51344;-51
2022/05/14 06:59:28;;;;;;;;;13.75;13.75;;;;;31.05;100.00;101003.94;6343068;22;51133;-52
2022/05/14 07:02:14;;;;;;;;;18.50;14.25;;;;;31.11;100.00;100999.78;6320213;22;51024;-51
2022/05/14 07:08:03;;;;;;;;;22.50;16.00;;;;;31.29;100.00;101024.81;6342168;22;51273;-51
2022/05/14 07:10:47;;;;;;;;;21.00;15.25;;;;;31.31;100.00;101031.94;6343981;22;51047;-52
2022/05/14 07:13:32;;;;;;;;;14.00;10.00;;;;;31.41;100.00;101039.38;6343584;22;51018;-49
2022/05/14 07:16:16;;;;;;;;;16.25;11.25;;;;;31.50;100.00;101046.81;6342907;22;51056;-51
2022/05/14 07:19:01;;;;;;;;;15.00;13.25;;;;;31.57;100.00;101064.50;6343703;22;51140;-48
2022/05/14 07:21:46;;;;;;;;;18.50;14.50;;;;;31.65;100.00;101059.19;6342966;22;51009;-51
2022/05/14 07:24:31;;;;;;;;;24.25;24.25;;;;;31.71;100.00;101059.69;6342373;22;51155;-52
2022/05/14 07:27:16;;;;;;;;;27.25;23.00;;;;;31.74;100.00;101076.78;6343341;22;51016;-48
2022/05/14 07:30:01;;;;;;;;;26.50;23.25;;;;;31.84;100.00;101096.13;6338639;22;50944;-50
2022/05/14 07:32:46;;;;;;;;;35.25;28.50;;;;;31.95;100.00;101097.91;6342200;22;51056;-51
2022/05/14 07:35:31;;;;;;;;;34.75;26.25;;;;;32.04;100.00;101109.97;6341801;22;51498;-49
2022/05/14 07:38:16;;;;;;;;;31.25;27.75;;;;;32.19;100.00;101122.34;6343839;22;51026;-49
2022/05/14 07:41:01;;;;;;;;;34.25;26.50;;;;;32.44;100.00;101136.69;6319104;22;51568;-50
2022/05/14 07:43:48;;;;;;;;;26.75;24.25;;;;;32.82;100.00;101135.09;6341919;22;51184;-49
2022/05/14 07:46:36;;;;;;;;;26.50;24.25;;;;;33.25;100.00;101160.56;6342094;22;51112;-52
2022/05/14 07:49:21;;;;;;;;;26.00;22.75;;;;;33.58;100.00;101172.22;6342783;22;51123;-52
2022/05/14 07:52:07;;;;;;;;;33.50;25.50;;;;;33.81;100.00;101186.56;6337873;22;51140;-49
2022/05/14 07:54:51;;;;;;;;;29.00;24.25;;;;;34.06;100.00;101186.97;6319359;22;51386;-51
2022/05/14 07:57:35;;;;;;;;;28.50;25.25;;;;;34.29;100.00;101195.78;6342911;22;51077;-51
2022/05/14 08:00:20;;;;;;;;;27.50;23.75;;;;;34.38;100.00;101201.41;6342870;22;51507;-50
2022/05/14 08:03:05;;;;;;;;;26.00;22.75;;;;;34.35;100.00;101199.81;6343251;22;50993;-52
2022/05/14 08:05:56;;;;;;;;;23.00;21.75;;;;;34.28;100.00;101198.69;6343230;22;51402;-51
2022/05/14 08:08:41;;;;;;;;;22.75;19.50;;;;;34.25;100.00;101197.09;6343038;22;51220;-49
2022/05/14 08:11:27;;;;;;;;;21.50;18.75;;;;;34.08;100.00;101184.91;6342877;22;51447;-51
2022/05/14 08:14:11;;;;;;;;;16.50;16.25;;;;;34.17;100.00;101193.34;6343357;22;50971;-48
2022/05/14 08:16:56;;;;;;;;;18.50;16.50;;;;;34.21;100.00;101203.06;6343421;22;51021;-51
2022/05/14 08:19:41;;;;;;;;;25.00;16.75;;;;;34.25;100.00;101204.50;6342398;22;51044;-50
2022/05/14 08:25:29;;;;;;;;;26.25;20.00;;;;;34.48;100.00;101206.94;6343094;22;51129;-50
2022/05/14 08:28:14;;;;;;;;;17.75;14.50;;;;;34.56;100.00;101221.72;6341887;22;51049;-48
2022/05/14 08:31:00;;;;;;;;;23.25;19.50;;;;;34.65;100.00;101230.16;6343688;22;50989;-51
2022/05/14 08:33:46;;;;;;;;;18.00;16.00;;;;;34.76;100.00;101232.72;6342807;22;51065;-51
2022/05/14 08:36:30;;;;;;;;;19.75;15.50;;;;;34.90;100.00;101231.34;6342935;22;51359;-51
2022/05/14 08:39:16;;;;;;;;;16.25;13.25;;;;;35.08;100.00;101236.94;6343348;22;51096;-47
2022/05/14 08:42:01;;;;;;;;;14.75;10.25;;;;;35.26;100.00;101242.47;6344251;22;51030;-51
2022/05/14 08:44:46;;;;;;;;;12.25;7.75;;;;;35.40;100.00;101254.03;6342157;22;51048;-51
2022/05/14 08:47:39;;;;;;;;;12.50;9.00;;;;;35.53;100.00;101265.63;6341922;22;51109;-50
2022/05/14 08:50:36;;;;;;;;;12.75;11.25;;;;;35.66;100.00;101279.94;6339094;22;51723;-48
2022/05/14 08:53:24;;;;;;;;;16.50;10.75;;;;;35.66;100.00;101282.69;6342540;22;51132;-52
2022/05/14 08:56:12;;;;;;;;;10.25;10.25;;;;;35.70;100.00;101276.84;6340528;22;51595;-50
2022/05/14 09:37:46;;;;;;;;;7.00;5.50;;;;;33.31;100.00;101266.66;4388709;32;51184;-48
2022/05/14 09:40:31;;;;;;;;;7.75;5.25;;;;;33.48;100.00;101290.81;5117888;27;51216;-44
2022/05/14 09:43:15;;;;;;;;;8.00;7.50;;;;;33.50;100.00;101293.41;5117568;27;51317;-48
2022/05/14 09:46:12;;;;;;;;;8.50;5.00;;;;;33.51;100.00;101300.69;5112068;27;51071;-47
2022/05/14 09:49:05;;;;;;;;;10.25;6.00;;;;;33.49;100.00;101300.84;5102864;27;51072;-44
2022/05/14 09:52:05;;;;;;;;;0.25;0.00;;;;;33.41;100.00;101292.41;5117555;27;51281;-45
2022/05/14 09:54:50;;;;;;;;;5.75;4.00;;;;;33.39;100.00;101290.81;5117610;27;51105;-47
2022/05/14 09:57:47;;;;;;;;;6.75;4.50;;;;;33.40;100.00;101304.44;5117166;27;51209;-46
2022/05/14 10:00:36;;;;;;;;;8.75;5.75;;;;;33.44;100.00;101288.47;5117417;27;51410;-46
2022/05/14 10:03:45;;;;;;;;;5.75;3.00;;;;;33.58;100.00;101292.72;5117198;27;51077;-47
2022/05/14 10:06:36;;;;;;;;;4.75;4.00;;;;;33.77;100.00;101291.88;5110987;27;51179;-47
2022/05/14 10:09:42;;;;;;;;;7.25;5.00;;;;;34.06;100.00;101296.53;5117079;27;51191;-48
2022/05/14 10:12:34;;;;;;;;;3.25;3.25;;;;;34.22;100.00;101310.63;5099045;27;51164;-46
2022/05/14 10:15:37;;;;;;;;;6.00;5.00;;;;;34.32;100.00;101318.88;5097896;27;51201;-46
2022/05/14 10:18:47;;;;;;;;;8.25;5.25;;;;;34.23;100.00;101314.25;5116988;27;51223;-49
2022/05/14 10:21:45;;;;;;;;;6.50;5.25;;;;;34.46;100.00;101312.06;5100629;27;51135;-47
2022/05/14 10:28:08;;;;;;;;;5.50;5.50;;;;;34.72;100.00;101323.31;5101852;27;51181;-46
2022/05/14 10:31:01;;;;;;;;;8.75;4.75;;;;;34.68;100.00;101319.13;5116672;27;51136;-46
2022/05/14 10:33:47;;;;;;;;;6.25;4.50;;;;;34.61;100.00;101317.97;5089361;27;51483;-48
2022/05/14 10:36:58;;;;;;;;;5.00;3.25;;;;;34.44;100.00;101309.44;5085090;27;51308;-45
2022/05/14 10:40:23;;;;;;;;;11.00;8.50;;;;;34.50;100.00;101307.13;4992706;22;51521;-48
2022/05/14 10:43:35;;;;;;;;;6.75;4.50;;;;;34.73;100.00;101314.00;5051801;28;51080;-50
2022/05/14 10:46:24;;;;;;;;;7.75;4.75;;;;;34.74;100.00;101310.22;5040534;28;50993;-51
2022/05/14 10:49:15;;;;;;;;;4.75;3.25;;;;;34.46;100.00;101306.53;5041813;28;51142;-51
2022/05/14 10:52:00;;;;;;;;;11.00;4.50;;;;;34.14;100.00;101280.97;5042837;28;51279;-49
2022/05/14 10:54:45;;;;;;;;;8.00;5.00;;;;;34.15;100.00;101298.41;5055273;28;51157;-52
2022/05/14 10:57:44;;;;;;;;;7.50;4.75;;;;;34.04;100.00;101288.41;5059125;28;51317;-52
2022/05/14 11:00:39;;;;;;;;;5.75;3.25;;;;;33.92;100.00;101281.28;5060244;28;51136;-49
2022/05/14 11:03:26;;;;;;;;;4.25;3.00;;;;;33.93;100.00;101283.91;5059856;28;51151;-52
2022/05/14 11:06:12;;;;;;;;;2.75;2.75;;;;;33.96;100.00;101271.72;5054340;28;51888;-52
2022/05/14 11:08:57;;;;;;;;;8.75;5.75;;;;;33.99;100.00;101263.13;5039989;28;51199;-51
2022/05/14 11:11:49;;;;;;;;;7.50;5.00;;;;;34.08;100.00;101275.19;5040908;28;51241;-50
2022/05/14 11:14:46;;;;;;;;;4.25;3.00;;;;;34.10;100.00;101251.91;5041178;28;51148;-52
2022/05/14 11:17:32;;;;;;;;;3.50;3.00;;;;;34.07;100.00;101263.28;5038461;28;51526;-52
2022/05/14 11:20:18;;;;;;;;;4.75;3.50;;;;;34.04;100.00;101266.31;5052700;28;51023;-50
2022/05/14 11:23:06;;;;;;;;;3.00;2.25;;;;;34.02;100.00;101265.59;5060700;28;51075;-52
2022/05/14 11:26:08;;;;;;;;;6.50;4.75;;;;;34.08;100.00;101264.13;5060457;28;51067;-49
2022/05/14 11:28:59;;;;;;;;;6.50;5.00;;;;;34.21;100.00;101269.34;5038629;28;51481;-53
2022/05/14 11:31:55;;;;;;;;;1.75;0.00;;;;;34.30;100.00;101262.91;5044014;28;51237;-52
2022/05/14 11:34:52;;;;;;;;;5.00;3.25;;;;;34.28;100.00;101257.56;5040386;28;51487;-51
2022/05/14 11:37:39;;;;;;;;;11.00;6.50;;;;;34.39;100.00;101263.91;5041032;28;51150;-50
2022/05/14 11:40:24;;;;;;;;;7.00;5.00;;;;;34.40;100.00;101263.78;5050780;28;51153;-50
2022/05/14 11:43:28;;;;;;;;;4.00;4.00;;;;;34.38;100.00;101254.78;5042813;28;51062;-51
2022/05/14 11:46:33;;;;;;;;;7.75;4.25;;;;;34.39;100.00;101259.31;5040772;28;51149;-49
2022/05/14 11:49:27;;;;;;;;;4.50;2.50;;;;;34.40;100.00;101252.75;5058068;28;51097;-52
2022/05/14 11:52:16;;;;;;;;;16.50;10.50;;;;;34.36;100.00;101240.25;5060899;28;51142;-51
2022/05/14 11:55:22;;;;;;;;;6.25;6.25;;;;;34.39;100.00;101244.59;5060508;28;51541;-52
2022/05/14 11:58:35;;;;;;;;;7.50;6.75;;;;;34.45;100.00;101247.66;5060704;28;51089;-51
2022/05/14 12:01:23;;;;;;;;;8.50;6.50;;;;;34.39;100.00;101234.47;5046553;28;51125;-51
2022/05/14 12:04:20;;;;;;;;;8.25;6.50;;;;;34.32;100.00;101238.78;5040218;28;51139;-51
2022/05/14 12:07:05;;;;;;;;;12.00;5.00;;;;;34.23;100.00;101236.91;5040123;28;51175;-46
2022/05/14 12:10:04;;;;;;;;;5.75;5.00;;;;;34.10;100.00;101227.06;5057325;28;51110;-52
2022/05/14 12:13:21;;;;;;;;;9.50;5.50;;;;;33.95;100.00;101226.66;5060268;28;51181;-48
2022/05/14 12:16:06;;;;;;;;;10.25;6.75;;;;;33.89;100.00;101232.78;5059047;28;51267;-50
2022/05/14 12:18:50;;;;;;;;;6.75;4.25;;;;;33.97;100.00;101224.63;5058217;28;51127;-50
2022/05/14 12:21:35;;;;;;;;;5.50;5.50;;;;;34.06;100.00;101214.59;5049903;28;51509;-50
2022/05/14 12:24:27;;;;;;;;;9.75;5.75;;;;;34.13;100.00;101212.09;5042984;28;51163;-50
2022/05/14 12:27:19;;;;;;;;;11.00;6.00;;;;;34.12;100.00;101200.19;5047620;28;51483;-49
2022/05/14 12:33:28;;;;;;;;;10.50;5.25;;;;;34.17;100.00;101198.88;5052624;28;51141;-47
2022/05/14 12:36:13;;;;;;;;;7.75;4.75;;;;;34.19;100.00;101200.47;5051293;28;51696;-47
2022/05/14 12:38:58;;;;;;;;;5.25;4.25;;;;;34.11;100.00;101192.91;5050539;28;51425;-47
2022/05/14 12:41:46;;;;;;;;;11.75;6.25;;;;;34.09;100.00;101189.41;5048499;28;51233;-50
2022/05/14 12:44:41;;;;;;;;;5.50;3.50;;;;;34.12;100.00;101189.13;5046807;28;51083;-50
2022/05/14 12:47:29;;;;;;;;;7.50;5.25;;;;;33.97;100.00;101174.06;5043578;28;51116;-48
2022/05/14 12:50:26;;;;;;;;;7.75;6.00;;;;;33.97;100.00;101179.59;5032903;28;51207;-51
2022/05/14 12:53:12;;;;;;;;;4.50;3.50;;;;;33.93;100.00;101172.63;5051323;28;51478;-49
2022/05/14 12:55:56;;;;;;;;;11.25;4.00;;;;;33.91;100.00;101172.78;5051510;28;51117;-51
2022/05/14 12:58:41;;;;;;;;;6.00;4.00;;;;;33.97;100.00;101165.78;5053655;28;51070;-50
2022/05/14 13:01:27;;;;;;;;;5.25;3.00;;;;;34.07;100.00;101160.22;5039117;28;51475;-49
2022/05/14 13:04:13;;;;;;;;;6.00;3.50;;;;;33.97;100.00;101146.47;5059642;28;51408;-47
2022/05/14 13:07:00;;;;;;;;;2.00;2.00;;;;;33.74;100.00;101138.50;5058338;28;51012;-50
2022/05/14 13:09:45;;;;;;;;;2.75;2.00;;;;;33.48;100.00;101139.09;5059670;28;51218;-47
2022/05/14 13:12:33;;;;;;;;;1.50;1.50;;;;;33.47;100.00;101142.88;5059019;28;51146;-46
2022/05/14 13:15:18;;;;;;;;;2.25;2.00;;;;;33.44;100.00;101132.13;5059445;28;51102;-51
2022/05/14 13:18:15;;;;;;;;;1.75;1.00;;;;;33.49;100.00;101142.75;5058362;28;51107;-50
2022/05/14 13:21:08;;;;;;;;;4.25;2.00;;;;;33.55;100.00;101138.53;5058983;28;51118;-50
2022/05/14 13:24:01;;;;;;;;;2.25;1.00;;;;;33.48;100.00;101136.34;5058316;28;51099;-47
2022/05/14 13:26:52;;;;;;;;;1.75;1.75;;;;;33.47;100.00;101142.88;5058993;28;51519;-48
2022/05/14 13:30:01;;;;;;;;;2.00;2.00;;;;;33.35;100.00;101135.75;5059180;28;51446;-49
2022/05/14 13:32:48;;;;;;;;;1.00;1.00;;;;;33.40;100.00;101132.56;5051682;28;51605;-51
2022/05/14 13:38:46;;;;;;;;;2.00;2.00;;;;;33.46;100.00;101132.00;5041814;28;51142;-46
2022/05/14 13:41:51;;;;;;;;;2.25;2.00;;;;;33.44;100.00;101140.38;5057381;28;51236;-49
2022/05/14 13:44:39;;;;;;;;;0.50;0.50;;;;;33.36;100.00;101132.88;5058339;28;51072;-51
2022/05/14 13:47:25;;;;;;;;;5.00;3.00;;;;;33.34;100.00;101131.25;5058083;28;51221;-47